sensor_id;sensor_type;location;lat;lon;timestamp;P1;durP1;ratioP1;P2;durP2;ratioP2
15331;SDS011;7766;51.534;6.722;2023-02-01T00:00:20;15.33;;;5.53;;
15331;SDS011;7766;51.534;6.722;2023-02-01T00:01:21;17.88;;;5.47;;
15331;SDS011;7766;51.534;6.722;2023-02-01T00:02:22;11.83;;;4.70;;
15331;SDS011;7766;51.534;6.722;2023-02-01T00:03:22;17.47;;;4.77;;
15331;SDS011;7766;51.534;6.722;2023-02-01T00:04:23;13.37;;;4.50;;
15331;SDS011;7766;51.534;6.722;2023-02-01T00:05:24;11.53;;;4.17;;
15331;SDS011;7766;51.534;6.722;2023-02-01T00:06:24;12.90;;;4.60;;
15331;SDS011;7766;51.534;6.722;2023-02-01T00:07:25;9.57;;;4.17;;
15331;SDS011;7766;51.534;6.722;2023-02-01T00:08:26;12.67;;;4.17;;
15331;SDS011;7766;51.534;6.722;2023-02-01T00:09:27;17.02;;;4.55;;
15331;SDS011;7766;51.534;6.722;2023-02-01T00:10:28;13.53;;;4.20;;
15331;SDS011;7766;51.534;6.722;2023-02-01T00:11:29;16.30;;;3.73;;
15331;SDS011;7766;51.534;6.722;2023-02-01T00:12:30;10.83;;;4.00;;
15331;SDS011;7766;51.534;6.722;2023-02-01T00:13:32;12.25;;;4.05;;
15331;SDS011;7766;51.534;6.722;2023-02-01T00:14:33;11.80;;;4.60;;
15331;SDS011;7766;51.534;6.722;2023-02-01T00:15:38;11.77;;;3.55;;
15331;SDS011;7766;51.534;6.722;2023-02-01T00:16:39;15.33;;;4.30;;
15331;SDS011;7766;51.534;6.722;2023-02-01T00:17:40;14.02;;;5.18;;
15331;SDS011;7766;51.534;6.722;2023-02-01T00:18:40;10.87;;;4.07;;
15331;SDS011;7766;51.534;6.722;2023-02-01T00:19:41;13.20;;;3.97;;
15331;SDS011;7766;51.534;6.722;2023-02-01T00:20:46;15.00;;;4.00;;
15331;SDS011;7766;51.534;6.722;2023-02-01T00:21:46;13.02;;;3.63;;
15331;SDS011;7766;51.534;6.722;2023-02-01T00:22:47;14.43;;;4.10;;
15331;SDS011;7766;51.534;6.722;2023-02-01T00:23:48;13.40;;;3.80;;
15331;SDS011;7766;51.534;6.722;2023-02-01T00:24:49;11.90;;;3.60;;
15331;SDS011;7766;51.534;6.722;2023-02-01T00:25:50;12.10;;;4.07;;
15331;SDS011;7766;51.534;6.722;2023-02-01T00:26:51;14.33;;;4.10;;
15331;SDS011;7766;51.534;6.722;2023-02-01T00:27:52;16.88;;;4.57;;
15331;SDS011;7766;51.534;6.722;2023-02-01T00:28:53;8.80;;;3.40;;
15331;SDS011;7766;51.534;6.722;2023-02-01T00:29:55;10.50;;;3.83;;
15331;SDS011;7766;51.534;6.722;2023-02-01T00:30:59;10.15;;;3.10;;
15331;SDS011;7766;51.534;6.722;2023-02-01T00:32:00;8.95;;;3.15;;
15331;SDS011;7766;51.534;6.722;2023-02-01T00:33:01;14.37;;;4.23;;
15331;SDS011;7766;51.534;6.722;2023-02-01T00:34:02;16.10;;;4.57;;
15331;SDS011;7766;51.534;6.722;2023-02-01T00:35:03;16.02;;;3.65;;
15331;SDS011;7766;51.534;6.722;2023-02-01T00:36:05;10.45;;;3.55;;
15331;SDS011;7766;51.534;6.722;2023-02-01T00:37:06;12.52;;;4.55;;
15331;SDS011;7766;51.534;6.722;2023-02-01T00:38:07;12.67;;;4.10;;
15331;SDS011;7766;51.534;6.722;2023-02-01T00:39:07;11.07;;;3.13;;
15331;SDS011;7766;51.534;6.722;2023-02-01T00:40:08;16.93;;;4.33;;
15331;SDS011;7766;51.534;6.722;2023-02-01T00:41:11;10.60;;;3.53;;
15331;SDS011;7766;51.534;6.722;2023-02-01T00:42:12;11.30;;;4.03;;
15331;SDS011;7766;51.534;6.722;2023-02-01T00:43:13;15.07;;;3.20;;
15331;SDS011;7766;51.534;6.722;2023-02-01T00:44:14;11.37;;;4.07;;
15331;SDS011;7766;51.534;6.722;2023-02-01T00:45:15;16.37;;;3.63;;
15331;SDS011;7766;51.534;6.722;2023-02-01T00:46:16;17.77;;;3.83;;
15331;SDS011;7766;51.534;6.722;2023-02-01T00:47:18;10.23;;;3.35;;
15331;SDS011;7766;51.534;6.722;2023-02-01T00:48:19;11.82;;;3.50;;
15331;SDS011;7766;51.534;6.722;2023-02-01T00:49:20;10.87;;;3.50;;
15331;SDS011;7766;51.534;6.722;2023-02-01T00:50:21;15.82;;;4.05;;
15331;SDS011;7766;51.534;6.722;2023-02-01T00:51:24;9.10;;;4.03;;
15331;SDS011;7766;51.534;6.722;2023-02-01T00:52:26;15.73;;;3.80;;
15331;SDS011;7766;51.534;6.722;2023-02-01T00:53:28;16.80;;;4.23;;
15331;SDS011;7766;51.534;6.722;2023-02-01T00:54:29;14.10;;;3.72;;
15331;SDS011;7766;51.534;6.722;2023-02-01T00:55:29;11.17;;;3.70;;
15331;SDS011;7766;51.534;6.722;2023-02-01T00:56:30;16.63;;;4.13;;
15331;SDS011;7766;51.534;6.722;2023-02-01T00:57:31;14.33;;;3.87;;
15331;SDS011;7766;51.534;6.722;2023-02-01T00:58:32;14.90;;;4.30;;
15331;SDS011;7766;51.534;6.722;2023-02-01T00:59:33;15.20;;;3.88;;
15331;SDS011;7766;51.534;6.722;2023-02-01T01:00:34;11.53;;;4.07;;
15331;SDS011;7766;51.534;6.722;2023-02-01T01:01:35;12.10;;;4.47;;
15331;SDS011;7766;51.534;6.722;2023-02-01T01:02:35;17.03;;;4.37;;
15331;SDS011;7766;51.534;6.722;2023-02-01T01:03:37;16.30;;;4.33;;
15331;SDS011;7766;51.534;6.722;2023-02-01T01:04:40;12.35;;;4.28;;
15331;SDS011;7766;51.534;6.722;2023-02-01T01:05:41;12.63;;;4.35;;
15331;SDS011;7766;51.534;6.722;2023-02-01T01:06:42;14.50;;;5.17;;
15331;SDS011;7766;51.534;6.722;2023-02-01T01:07:43;13.80;;;4.97;;
15331;SDS011;7766;51.534;6.722;2023-02-01T01:08:43;10.87;;;4.80;;
15331;SDS011;7766;51.534;6.722;2023-02-01T01:09:44;12.63;;;4.13;;
15331;SDS011;7766;51.534;6.722;2023-02-01T01:10:45;13.07;;;4.10;;
15331;SDS011;7766;51.534;6.722;2023-02-01T01:11:46;15.17;;;4.90;;
15331;SDS011;7766;51.534;6.722;2023-02-01T01:12:47;13.83;;;4.50;;
15331;SDS011;7766;51.534;6.722;2023-02-01T01:13:48;19.93;;;4.60;;
15331;SDS011;7766;51.534;6.722;2023-02-01T01:14:49;12.40;;;4.82;;
15331;SDS011;7766;51.534;6.722;2023-02-01T01:15:50;12.30;;;5.00;;
15331;SDS011;7766;51.534;6.722;2023-02-01T01:16:51;14.03;;;4.53;;
15331;SDS011;7766;51.534;6.722;2023-02-01T01:17:52;10.37;;;3.93;;
15331;SDS011;7766;51.534;6.722;2023-02-01T01:18:53;16.17;;;4.70;;
15331;SDS011;7766;51.534;6.722;2023-02-01T01:19:54;17.80;;;7.22;;
15331;SDS011;7766;51.534;6.722;2023-02-01T01:20:55;13.97;;;6.90;;
15331;SDS011;7766;51.534;6.722;2023-02-01T01:21:56;63.90;;;28.17;;
15331;SDS011;7766;51.534;6.722;2023-02-01T01:22:57;166.90;;;71.47;;
15331;SDS011;7766;51.534;6.722;2023-02-01T01:23:58;60.57;;;27.90;;
15331;SDS011;7766;51.534;6.722;2023-02-01T01:24:58;33.27;;;17.23;;
15331;SDS011;7766;51.534;6.722;2023-02-01T01:26:00;18.93;;;7.53;;
15331;SDS011;7766;51.534;6.722;2023-02-01T01:27:01;13.65;;;5.15;;
15331;SDS011;7766;51.534;6.722;2023-02-01T01:28:01;15.10;;;4.67;;
15331;SDS011;7766;51.534;6.722;2023-02-01T01:29:02;16.67;;;4.40;;
15331;SDS011;7766;51.534;6.722;2023-02-01T01:30:03;14.30;;;4.68;;
15331;SDS011;7766;51.534;6.722;2023-02-01T01:31:07;10.93;;;4.60;;
15331;SDS011;7766;51.534;6.722;2023-02-01T01:32:08;15.65;;;4.93;;
15331;SDS011;7766;51.534;6.722;2023-02-01T01:33:09;13.67;;;5.53;;
15331;SDS011;7766;51.534;6.722;2023-02-01T01:34:10;12.98;;;4.82;;
15331;SDS011;7766;51.534;6.722;2023-02-01T01:35:10;10.93;;;4.50;;
15331;SDS011;7766;51.534;6.722;2023-02-01T01:36:12;9.57;;;4.80;;
15331;SDS011;7766;51.534;6.722;2023-02-01T01:37:13;17.83;;;5.13;;
15331;SDS011;7766;51.534;6.722;2023-02-01T01:38:14;15.43;;;4.80;;
15331;SDS011;7766;51.534;6.722;2023-02-01T01:39:14;10.47;;;4.43;;
15331;SDS011;7766;51.534;6.722;2023-02-01T01:40:15;14.33;;;4.43;;
15331;SDS011;7766;51.534;6.722;2023-02-01T01:41:18;10.48;;;4.32;;
15331;SDS011;7766;51.534;6.722;2023-02-01T01:42:21;9.45;;;4.32;;
15331;SDS011;7766;51.534;6.722;2023-02-01T01:43:22;14.30;;;5.15;;
15331;SDS011;7766;51.534;6.722;2023-02-01T01:45:43;14.30;;;4.95;;
15331;SDS011;7766;51.534;6.722;2023-02-01T01:46:43;16.23;;;4.60;;
15331;SDS011;7766;51.534;6.722;2023-02-01T01:47:46;14.07;;;4.60;;
15331;SDS011;7766;51.534;6.722;2023-02-01T01:48:50;15.65;;;4.30;;
15331;SDS011;7766;51.534;6.722;2023-02-01T01:49:52;14.95;;;4.68;;
15331;SDS011;7766;51.534;6.722;2023-02-01T01:51:03;16.43;;;4.77;;
15331;SDS011;7766;51.534;6.722;2023-02-01T01:52:08;13.93;;;4.47;;
15331;SDS011;7766;51.534;6.722;2023-02-01T01:53:11;16.30;;;5.28;;
15331;SDS011;7766;51.534;6.722;2023-02-01T01:54:14;11.40;;;3.80;;
15331;SDS011;7766;51.534;6.722;2023-02-01T01:55:18;18.13;;;4.28;;
15331;SDS011;7766;51.534;6.722;2023-02-01T01:56:20;14.63;;;4.43;;
15331;SDS011;7766;51.534;6.722;2023-02-01T01:57:29;15.35;;;4.70;;
15331;SDS011;7766;51.534;6.722;2023-02-01T01:58:32;14.18;;;3.95;;
15331;SDS011;7766;51.534;6.722;2023-02-01T01:59:34;13.13;;;3.97;;
15331;SDS011;7766;51.534;6.722;2023-02-01T02:00:36;18.08;;;4.65;;
15331;SDS011;7766;51.534;6.722;2023-02-01T02:01:37;19.25;;;4.13;;
15331;SDS011;7766;51.534;6.722;2023-02-01T02:02:39;15.17;;;4.23;;
15331;SDS011;7766;51.534;6.722;2023-02-01T02:03:42;8.63;;;3.78;;
15331;SDS011;7766;51.534;6.722;2023-02-01T02:04:43;11.93;;;4.10;;
15331;SDS011;7766;51.534;6.722;2023-02-01T02:05:45;13.85;;;4.25;;
15331;SDS011;7766;51.534;6.722;2023-02-01T02:06:50;20.83;;;4.57;;
15331;SDS011;7766;51.534;6.722;2023-02-01T02:07:52;14.95;;;4.85;;
15331;SDS011;7766;51.534;6.722;2023-02-01T02:08:54;9.93;;;4.10;;
15331;SDS011;7766;51.534;6.722;2023-02-01T02:09:55;21.27;;;5.50;;
15331;SDS011;7766;51.534;6.722;2023-02-01T02:10:56;21.63;;;9.88;;
15331;SDS011;7766;51.534;6.722;2023-02-01T02:12:00;14.75;;;4.35;;
15331;SDS011;7766;51.534;6.722;2023-02-01T02:13:01;14.67;;;4.17;;
15331;SDS011;7766;51.534;6.722;2023-02-01T02:14:02;13.97;;;4.07;;
15331;SDS011;7766;51.534;6.722;2023-02-01T02:15:05;16.00;;;4.28;;
15331;SDS011;7766;51.534;6.722;2023-02-01T02:16:28;12.27;;;3.30;;
15331;SDS011;7766;51.534;6.722;2023-02-01T02:17:33;13.07;;;3.55;;
15331;SDS011;7766;51.534;6.722;2023-02-01T02:20:04;16.55;;;3.90;;
15331;SDS011;7766;51.534;6.722;2023-02-01T02:22:35;15.73;;;4.00;;
15331;SDS011;7766;51.534;6.722;2023-02-01T02:26:24;14.05;;;3.70;;
15331;SDS011;7766;51.534;6.722;2023-02-01T02:35:50;13.80;;;3.88;;
15331;SDS011;7766;51.534;6.722;2023-02-01T02:36:30;11.73;;;3.20;;
15331;SDS011;7766;51.534;6.722;2023-02-01T02:40:15;13.00;;;3.63;;
15331;SDS011;7766;51.534;6.722;2023-02-01T02:41:33;11.52;;;3.63;;
15331;SDS011;7766;51.534;6.722;2023-02-01T02:43:01;11.80;;;2.55;;
15331;SDS011;7766;51.534;6.722;2023-02-01T02:45:06;13.85;;;3.20;;
15331;SDS011;7766;51.534;6.722;2023-02-01T02:46:23;8.70;;;2.78;;
15331;SDS011;7766;51.534;6.722;2023-02-01T02:51:12;11.13;;;2.85;;
15331;SDS011;7766;51.534;6.722;2023-02-01T02:52:15;13.18;;;3.20;;
15331;SDS011;7766;51.534;6.722;2023-02-01T02:53:43;15.88;;;3.50;;
15331;SDS011;7766;51.534;6.722;2023-02-01T02:55:07;12.60;;;3.05;;
15331;SDS011;7766;51.534;6.722;2023-02-01T02:56:09;15.45;;;3.08;;
15331;SDS011;7766;51.534;6.722;2023-02-01T02:57:36;9.00;;;2.88;;
15331;SDS011;7766;51.534;6.722;2023-02-01T02:58:58;12.52;;;3.55;;
15331;SDS011;7766;51.534;6.722;2023-02-01T03:00:19;11.15;;;2.88;;
15331;SDS011;7766;51.534;6.722;2023-02-01T03:01:39;11.32;;;3.08;;
15331;SDS011;7766;51.534;6.722;2023-02-01T03:03:00;16.02;;;3.63;;
15331;SDS011;7766;51.534;6.722;2023-02-01T03:04:20;13.07;;;3.33;;
15331;SDS011;7766;51.534;6.722;2023-02-01T03:05:23;12.80;;;3.15;;
15331;SDS011;7766;51.534;6.722;2023-02-01T03:06:25;15.68;;;2.92;;
15331;SDS011;7766;51.534;6.722;2023-02-01T03:08:46;18.38;;;3.47;;
15331;SDS011;7766;51.534;6.722;2023-02-01T03:09:47;13.30;;;2.83;;
15331;SDS011;7766;51.534;6.722;2023-02-01T03:11:07;10.68;;;2.85;;
15331;SDS011;7766;51.534;6.722;2023-02-01T03:12:10;16.70;;;3.58;;
15331;SDS011;7766;51.534;6.722;2023-02-01T03:14:32;15.03;;;2.87;;
15331;SDS011;7766;51.534;6.722;2023-02-01T03:15:40;9.77;;;2.97;;
15331;SDS011;7766;51.534;6.722;2023-02-01T03:16:45;8.18;;;3.47;;
15331;SDS011;7766;51.534;6.722;2023-02-01T03:17:47;12.95;;;2.97;;
15331;SDS011;7766;51.534;6.722;2023-02-01T03:20:04;12.23;;;2.70;;
15331;SDS011;7766;51.534;6.722;2023-02-01T03:21:08;16.85;;;3.22;;
15331;SDS011;7766;51.534;6.722;2023-02-01T03:22:12;10.45;;;2.97;;
15331;SDS011;7766;51.534;6.722;2023-02-01T03:23:16;14.57;;;3.58;;
15331;SDS011;7766;51.534;6.722;2023-02-01T03:24:23;14.65;;;2.40;;
15331;SDS011;7766;51.534;6.722;2023-02-01T03:25:49;15.00;;;3.80;;
15331;SDS011;7766;51.534;6.722;2023-02-01T03:26:53;8.27;;;2.88;;
15331;SDS011;7766;51.534;6.722;2023-02-01T03:27:57;15.07;;;3.50;;
15331;SDS011;7766;51.534;6.722;2023-02-01T03:29:05;10.23;;;2.97;;
15331;SDS011;7766;51.534;6.722;2023-02-01T03:30:11;12.48;;;3.15;;
15331;SDS011;7766;51.534;6.722;2023-02-01T03:31:27;13.52;;;3.50;;
15331;SDS011;7766;51.534;6.722;2023-02-01T03:32:28;12.65;;;3.97;;
15331;SDS011;7766;51.534;6.722;2023-02-01T03:33:49;9.75;;;3.13;;
15331;SDS011;7766;51.534;6.722;2023-02-01T03:34:51;14.43;;;3.25;;
15331;SDS011;7766;51.534;6.722;2023-02-01T03:37:23;12.38;;;3.33;;
15331;SDS011;7766;51.534;6.722;2023-02-01T03:39:46;15.80;;;3.75;;
15331;SDS011;7766;51.534;6.722;2023-02-01T03:40:51;18.02;;;3.40;;
15331;SDS011;7766;51.534;6.722;2023-02-01T03:41:56;15.80;;;3.70;;
15331;SDS011;7766;51.534;6.722;2023-02-01T03:43:00;11.30;;;3.42;;
15331;SDS011;7766;51.534;6.722;2023-02-01T03:44:21;16.48;;;3.33;;
15331;SDS011;7766;51.534;6.722;2023-02-01T03:45:24;12.77;;;3.55;;
15331;SDS011;7766;51.534;6.722;2023-02-01T03:46:34;11.73;;;3.50;;
15331;SDS011;7766;51.534;6.722;2023-02-01T03:47:37;10.35;;;3.28;;
15331;SDS011;7766;51.534;6.722;2023-02-01T03:48:45;16.25;;;3.58;;
15331;SDS011;7766;51.534;6.722;2023-02-01T03:49:48;15.10;;;4.25;;
15331;SDS011;7766;51.534;6.722;2023-02-01T03:50:52;12.18;;;3.58;;
15331;SDS011;7766;51.534;6.722;2023-02-01T03:51:54;12.45;;;3.88;;
15331;SDS011;7766;51.534;6.722;2023-02-01T03:53:02;17.00;;;3.90;;
15331;SDS011;7766;51.534;6.722;2023-02-01T03:54:03;19.85;;;4.28;;
15331;SDS011;7766;51.534;6.722;2023-02-01T03:55:06;18.40;;;4.40;;
15331;SDS011;7766;51.534;6.722;2023-02-01T03:56:08;14.23;;;3.83;;
15331;SDS011;7766;51.534;6.722;2023-02-01T03:57:13;13.32;;;3.78;;
15331;SDS011;7766;51.534;6.722;2023-02-01T03:58:21;19.85;;;4.22;;
15331;SDS011;7766;51.534;6.722;2023-02-01T03:59:22;16.60;;;3.55;;
15331;SDS011;7766;51.534;6.722;2023-02-01T04:00:24;10.10;;;3.58;;
15331;SDS011;7766;51.534;6.722;2023-02-01T04:01:27;18.40;;;3.90;;
15331;SDS011;7766;51.534;6.722;2023-02-01T04:02:28;15.63;;;3.45;;
15331;SDS011;7766;51.534;6.722;2023-02-01T04:03:29;16.67;;;3.37;;
15331;SDS011;7766;51.534;6.722;2023-02-01T04:04:30;16.88;;;3.58;;
15331;SDS011;7766;51.534;6.722;2023-02-01T04:05:31;15.17;;;3.80;;
15331;SDS011;7766;51.534;6.722;2023-02-01T04:06:32;14.70;;;3.53;;
15331;SDS011;7766;51.534;6.722;2023-02-01T04:07:33;13.17;;;3.43;;
15331;SDS011;7766;51.534;6.722;2023-02-01T04:08:34;14.03;;;3.43;;
15331;SDS011;7766;51.534;6.722;2023-02-01T04:09:34;16.87;;;3.60;;
15331;SDS011;7766;51.534;6.722;2023-02-01T04:10:35;16.27;;;3.60;;
15331;SDS011;7766;51.534;6.722;2023-02-01T04:11:35;14.93;;;4.07;;
15331;SDS011;7766;51.534;6.722;2023-02-01T04:12:36;18.23;;;4.00;;
15331;SDS011;7766;51.534;6.722;2023-02-01T04:13:37;13.93;;;3.77;;
15331;SDS011;7766;51.534;6.722;2023-02-01T04:14:38;10.60;;;3.23;;
15331;SDS011;7766;51.534;6.722;2023-02-01T04:15:39;19.07;;;3.80;;
15331;SDS011;7766;51.534;6.722;2023-02-01T04:16:39;14.87;;;3.40;;
15331;SDS011;7766;51.534;6.722;2023-02-01T04:17:40;14.73;;;3.40;;
15331;SDS011;7766;51.534;6.722;2023-02-01T04:18:41;14.57;;;3.47;;
15331;SDS011;7766;51.534;6.722;2023-02-01T04:19:42;11.07;;;3.87;;
15331;SDS011;7766;51.534;6.722;2023-02-01T04:20:43;13.83;;;3.73;;
15331;SDS011;7766;51.534;6.722;2023-02-01T04:21:44;17.45;;;3.40;;
15331;SDS011;7766;51.534;6.722;2023-02-01T04:22:45;16.70;;;3.90;;
15331;SDS011;7766;51.534;6.722;2023-02-01T04:23:46;15.67;;;3.53;;
15331;SDS011;7766;51.534;6.722;2023-02-01T04:24:47;12.23;;;4.17;;
15331;SDS011;7766;51.534;6.722;2023-02-01T04:25:48;14.70;;;3.75;;
15331;SDS011;7766;51.534;6.722;2023-02-01T04:26:50;18.42;;;3.45;;
15331;SDS011;7766;51.534;6.722;2023-02-01T04:27:51;16.30;;;3.70;;
15331;SDS011;7766;51.534;6.722;2023-02-01T04:28:52;15.03;;;3.67;;
15331;SDS011;7766;51.534;6.722;2023-02-01T04:29:53;16.33;;;4.22;;
15331;SDS011;7766;51.534;6.722;2023-02-01T04:30:54;13.50;;;3.37;;
15331;SDS011;7766;51.534;6.722;2023-02-01T04:31:55;13.77;;;4.03;;
15331;SDS011;7766;51.534;6.722;2023-02-01T04:32:56;17.17;;;3.37;;
15331;SDS011;7766;51.534;6.722;2023-02-01T04:33:57;14.83;;;3.27;;
15331;SDS011;7766;51.534;6.722;2023-02-01T04:34:58;17.93;;;3.73;;
15331;SDS011;7766;51.534;6.722;2023-02-01T04:35:58;19.03;;;3.63;;
15331;SDS011;7766;51.534;6.722;2023-02-01T04:36:59;14.07;;;3.87;;
15331;SDS011;7766;51.534;6.722;2023-02-01T04:38:01;12.45;;;3.30;;
15331;SDS011;7766;51.534;6.722;2023-02-01T04:39:02;13.13;;;3.53;;
15331;SDS011;7766;51.534;6.722;2023-02-01T04:40:02;18.50;;;4.20;;
15331;SDS011;7766;51.534;6.722;2023-02-01T04:41:03;13.77;;;3.97;;
15331;SDS011;7766;51.534;6.722;2023-02-01T04:42:04;10.77;;;3.53;;
15331;SDS011;7766;51.534;6.722;2023-02-01T04:43:05;12.63;;;3.27;;
15331;SDS011;7766;51.534;6.722;2023-02-01T04:44:07;14.20;;;4.10;;
15331;SDS011;7766;51.534;6.722;2023-02-01T04:45:14;10.25;;;3.55;;
15331;SDS011;7766;51.534;6.722;2023-02-01T04:46:14;17.33;;;3.60;;
15331;SDS011;7766;51.534;6.722;2023-02-01T04:47:16;16.20;;;3.63;;
15331;SDS011;7766;51.534;6.722;2023-02-01T04:48:17;12.53;;;3.10;;
15331;SDS011;7766;51.534;6.722;2023-02-01T04:49:19;12.45;;;3.05;;
15331;SDS011;7766;51.534;6.722;2023-02-01T04:50:21;14.60;;;4.32;;
15331;SDS011;7766;51.534;6.722;2023-02-01T04:51:23;20.48;;;4.05;;
15331;SDS011;7766;51.534;6.722;2023-02-01T04:52:24;13.67;;;3.63;;
15331;SDS011;7766;51.534;6.722;2023-02-01T04:53:25;17.13;;;3.77;;
15331;SDS011;7766;51.534;6.722;2023-02-01T04:54:26;12.85;;;3.78;;
15331;SDS011;7766;51.534;6.722;2023-02-01T04:55:27;21.03;;;3.53;;
15331;SDS011;7766;51.534;6.722;2023-02-01T04:56:28;14.90;;;3.10;;
15331;SDS011;7766;51.534;6.722;2023-02-01T04:57:29;22.50;;;4.33;;
15331;SDS011;7766;51.534;6.722;2023-02-01T04:58:30;16.23;;;3.80;;
15331;SDS011;7766;51.534;6.722;2023-02-01T04:59:30;17.57;;;4.23;;
15331;SDS011;7766;51.534;6.722;2023-02-01T05:00:31;10.20;;;3.00;;
15331;SDS011;7766;51.534;6.722;2023-02-01T05:01:32;16.50;;;3.67;;
15331;SDS011;7766;51.534;6.722;2023-02-01T05:02:32;13.83;;;3.57;;
15331;SDS011;7766;51.534;6.722;2023-02-01T05:03:33;13.50;;;3.60;;
15331;SDS011;7766;51.534;6.722;2023-02-01T05:04:34;16.25;;;3.08;;
15331;SDS011;7766;51.534;6.722;2023-02-01T05:05:35;15.10;;;3.27;;
15331;SDS011;7766;51.534;6.722;2023-02-01T05:06:36;17.50;;;2.90;;
15331;SDS011;7766;51.534;6.722;2023-02-01T05:07:37;14.03;;;3.33;;
15331;SDS011;7766;51.534;6.722;2023-02-01T05:08:38;13.63;;;3.17;;
15331;SDS011;7766;51.534;6.722;2023-02-01T05:09:39;10.97;;;3.10;;
15331;SDS011;7766;51.534;6.722;2023-02-01T05:10:39;21.13;;;4.20;;
15331;SDS011;7766;51.534;6.722;2023-02-01T05:11:40;15.77;;;3.40;;
15331;SDS011;7766;51.534;6.722;2023-02-01T05:13:00;18.45;;;3.55;;
15331;SDS011;7766;51.534;6.722;2023-02-01T05:14:20;16.52;;;3.63;;
15331;SDS011;7766;51.534;6.722;2023-02-01T05:15:21;11.70;;;3.33;;
15331;SDS011;7766;51.534;6.722;2023-02-01T05:16:21;22.00;;;4.03;;
15331;SDS011;7766;51.534;6.722;2023-02-01T05:17:22;11.50;;;3.70;;
15331;SDS011;7766;51.534;6.722;2023-02-01T05:18:23;11.90;;;3.63;;
15331;SDS011;7766;51.534;6.722;2023-02-01T05:19:24;20.23;;;3.90;;
15331;SDS011;7766;51.534;6.722;2023-02-01T05:20:25;17.37;;;3.87;;
15331;SDS011;7766;51.534;6.722;2023-02-01T05:21:26;14.07;;;3.65;;
15331;SDS011;7766;51.534;6.722;2023-02-01T05:22:27;13.03;;;3.30;;
15331;SDS011;7766;51.534;6.722;2023-02-01T05:23:27;15.10;;;3.93;;
15331;SDS011;7766;51.534;6.722;2023-02-01T05:24:28;17.90;;;3.67;;
15331;SDS011;7766;51.534;6.722;2023-02-01T05:25:29;19.63;;;4.13;;
15331;SDS011;7766;51.534;6.722;2023-02-01T05:26:30;15.80;;;3.50;;
15331;SDS011;7766;51.534;6.722;2023-02-01T05:27:32;14.80;;;3.85;;
15331;SDS011;7766;51.534;6.722;2023-02-01T05:28:33;17.77;;;4.32;;
15331;SDS011;7766;51.534;6.722;2023-02-01T05:29:34;15.33;;;3.23;;
15331;SDS011;7766;51.534;6.722;2023-02-01T05:30:35;14.80;;;3.57;;
15331;SDS011;7766;51.534;6.722;2023-02-01T05:31:35;19.43;;;3.90;;
15331;SDS011;7766;51.534;6.722;2023-02-01T05:32:36;14.32;;;4.25;;
15331;SDS011;7766;51.534;6.722;2023-02-01T05:33:37;12.97;;;3.23;;
15331;SDS011;7766;51.534;6.722;2023-02-01T05:34:38;15.30;;;3.67;;
15331;SDS011;7766;51.534;6.722;2023-02-01T05:35:39;19.53;;;4.30;;
15331;SDS011;7766;51.534;6.722;2023-02-01T05:36:40;16.93;;;3.90;;
15331;SDS011;7766;51.534;6.722;2023-02-01T05:37:41;16.75;;;3.53;;
15331;SDS011;7766;51.534;6.722;2023-02-01T05:38:42;17.93;;;3.57;;
15331;SDS011;7766;51.534;6.722;2023-02-01T05:39:43;14.45;;;3.83;;
15331;SDS011;7766;51.534;6.722;2023-02-01T05:40:43;20.63;;;4.03;;
15331;SDS011;7766;51.534;6.722;2023-02-01T05:41:49;19.02;;;4.38;;
15331;SDS011;7766;51.534;6.722;2023-02-01T05:42:50;15.27;;;3.80;;
15331;SDS011;7766;51.534;6.722;2023-02-01T05:43:51;19.67;;;4.70;;
15331;SDS011;7766;51.534;6.722;2023-02-01T05:44:52;14.33;;;3.20;;
15331;SDS011;7766;51.534;6.722;2023-02-01T05:45:54;11.70;;;3.08;;
15331;SDS011;7766;51.534;6.722;2023-02-01T05:46:55;12.13;;;3.50;;
15331;SDS011;7766;51.534;6.722;2023-02-01T05:47:56;14.50;;;3.30;;
15331;SDS011;7766;51.534;6.722;2023-02-01T05:48:57;13.57;;;3.07;;
15331;SDS011;7766;51.534;6.722;2023-02-01T05:49:58;15.43;;;3.40;;
15331;SDS011;7766;51.534;6.722;2023-02-01T05:50:58;17.73;;;4.63;;
15331;SDS011;7766;51.534;6.722;2023-02-01T05:51:59;16.47;;;3.77;;
15331;SDS011;7766;51.534;6.722;2023-02-01T05:53:00;16.80;;;3.70;;
15331;SDS011;7766;51.534;6.722;2023-02-01T05:54:01;14.30;;;3.60;;
15331;SDS011;7766;51.534;6.722;2023-02-01T05:55:02;17.43;;;3.63;;
15331;SDS011;7766;51.534;6.722;2023-02-01T05:56:03;18.47;;;4.20;;
15331;SDS011;7766;51.534;6.722;2023-02-01T05:57:04;13.32;;;3.13;;
15331;SDS011;7766;51.534;6.722;2023-02-01T05:58:05;15.80;;;4.00;;
15331;SDS011;7766;51.534;6.722;2023-02-01T05:59:06;13.15;;;4.03;;
15331;SDS011;7766;51.534;6.722;2023-02-01T06:00:07;12.95;;;3.05;;
15331;SDS011;7766;51.534;6.722;2023-02-01T06:01:09;20.52;;;3.65;;
15331;SDS011;7766;51.534;6.722;2023-02-01T06:02:10;14.40;;;3.17;;
15331;SDS011;7766;51.534;6.722;2023-02-01T06:03:11;12.75;;;3.75;;
15331;SDS011;7766;51.534;6.722;2023-02-01T06:04:12;14.60;;;3.27;;
15331;SDS011;7766;51.534;6.722;2023-02-01T06:05:13;20.85;;;4.53;;
15331;SDS011;7766;51.534;6.722;2023-02-01T06:06:14;15.07;;;4.17;;
15331;SDS011;7766;51.534;6.722;2023-02-01T06:07:15;16.08;;;3.63;;
15331;SDS011;7766;51.534;6.722;2023-02-01T06:08:16;15.57;;;3.70;;
15331;SDS011;7766;51.534;6.722;2023-02-01T06:09:17;17.20;;;3.70;;
15331;SDS011;7766;51.534;6.722;2023-02-01T06:10:18;17.77;;;4.23;;
15331;SDS011;7766;51.534;6.722;2023-02-01T06:11:19;16.05;;;4.35;;
15331;SDS011;7766;51.534;6.722;2023-02-01T06:12:20;15.73;;;4.03;;
15331;SDS011;7766;51.534;6.722;2023-02-01T06:13:21;15.93;;;3.70;;
15331;SDS011;7766;51.534;6.722;2023-02-01T06:14:22;13.73;;;4.30;;
15331;SDS011;7766;51.534;6.722;2023-02-01T06:15:23;19.25;;;3.92;;
15331;SDS011;7766;51.534;6.722;2023-02-01T06:16:24;16.80;;;4.03;;
15331;SDS011;7766;51.534;6.722;2023-02-01T06:17:25;14.30;;;3.23;;
15331;SDS011;7766;51.534;6.722;2023-02-01T06:18:26;20.17;;;3.63;;
15331;SDS011;7766;51.534;6.722;2023-02-01T06:19:27;13.27;;;4.27;;
15331;SDS011;7766;51.534;6.722;2023-02-01T06:20:28;11.98;;;3.22;;
15331;SDS011;7766;51.534;6.722;2023-02-01T06:21:29;15.53;;;4.10;;
15331;SDS011;7766;51.534;6.722;2023-02-01T06:22:30;17.13;;;4.23;;
15331;SDS011;7766;51.534;6.722;2023-02-01T06:23:30;14.30;;;3.47;;
15331;SDS011;7766;51.534;6.722;2023-02-01T06:24:31;18.83;;;3.37;;
15331;SDS011;7766;51.534;6.722;2023-02-01T06:25:32;15.35;;;3.30;;
15331;SDS011;7766;51.534;6.722;2023-02-01T06:26:33;19.10;;;4.40;;
15331;SDS011;7766;51.534;6.722;2023-02-01T06:27:34;17.27;;;4.50;;
15331;SDS011;7766;51.534;6.722;2023-02-01T06:28:35;15.88;;;3.28;;
15331;SDS011;7766;51.534;6.722;2023-02-01T06:29:36;16.80;;;3.73;;
15331;SDS011;7766;51.534;6.722;2023-02-01T06:30:38;18.50;;;3.53;;
15331;SDS011;7766;51.534;6.722;2023-02-01T06:31:40;16.75;;;3.60;;
15331;SDS011;7766;51.534;6.722;2023-02-01T06:32:42;11.68;;;2.60;;
15331;SDS011;7766;51.534;6.722;2023-02-01T06:33:43;17.00;;;3.90;;
15331;SDS011;7766;51.534;6.722;2023-02-01T06:34:46;14.88;;;3.85;;
15331;SDS011;7766;51.534;6.722;2023-02-01T06:35:47;20.23;;;3.60;;
15331;SDS011;7766;51.534;6.722;2023-02-01T06:36:48;17.50;;;4.47;;
15331;SDS011;7766;51.534;6.722;2023-02-01T06:37:49;14.33;;;3.50;;
15331;SDS011;7766;51.534;6.722;2023-02-01T06:38:51;20.63;;;4.20;;
15331;SDS011;7766;51.534;6.722;2023-02-01T06:39:52;14.38;;;3.65;;
15331;SDS011;7766;51.534;6.722;2023-02-01T06:40:54;13.75;;;3.40;;
15331;SDS011;7766;51.534;6.722;2023-02-01T06:41:55;13.90;;;3.67;;
15331;SDS011;7766;51.534;6.722;2023-02-01T06:42:55;22.27;;;3.40;;
15331;SDS011;7766;51.534;6.722;2023-02-01T06:43:58;14.85;;;3.45;;
15331;SDS011;7766;51.534;6.722;2023-02-01T06:44:59;16.63;;;3.70;;
15331;SDS011;7766;51.534;6.722;2023-02-01T06:46:07;19.87;;;4.27;;
15331;SDS011;7766;51.534;6.722;2023-02-01T06:47:10;13.45;;;3.78;;